Time;durP1;ratioP1;P1;durP2;ratioP2;P2;SDS_P1;SDS_P2;PMS_P1;PMS_P2;Temp;Humidity;BMP_temperature;BMP_pressure;BME280_temperature;BME280_humidity;BME280_pressure;Samples;Min_cycle;Max_cycle;Signal;HPM_P1;HPM_P2
2023/08/11 00:01:33;;;;;;;120.20;8.90;;;;;;;23.03;57.19;99926.25;7279913;19;131435;-42
2023/08/11 00:03:58;;;;;;;126.63;9.23;;;;;;;23.04;56.78;99923.50;7284099;19;130215;-42
2023/08/11 00:06:25;;;;;;;163.50;11.27;;;;;;;23.05;56.77;99919.09;7279894;19;129518;-41
2023/08/11 00:08:50;;;;;;;;;;;;;;;23.05;57.88;99914.69;7284616;19;130248;-39
2023/08/11 00:11:15;;;;;;;172.90;12.63;;;;;;;23.02;56.91;99920.19;7275060;19;130859;-43
2023/08/11 00:13:41;;;;;;;154.07;11.18;;;;;;;22.98;56.70;99921.44;7272102;19;131186;-42
2023/08/11 00:16:07;;;;;;;177.63;12.83;;;;;;;23.01;57.42;99920.31;7271466;19;130928;-40
2023/08/11 00:18:32;;;;;;;148.13;11.10;;;;;;;23.01;57.08;99923.78;7273854;19;130778;-42
2023/08/11 00:20:59;;;;;;;124.93;9.30;;;;;;;23.03;57.11;99921.00;7278504;19;130368;-38
2023/08/11 00:23:24;;;;;;;132.20;9.50;;;;;;;23.03;56.57;99926.25;7280051;19;130173;-42
2023/08/11 00:25:50;;;;;;;139.93;10.03;;;;;;;23.03;56.60;99923.63;7284348;19;130711;-41
2023/08/11 00:28:15;;;;;;;117.33;8.83;;;;;;;23.03;56.99;99926.25;7287223;19;130244;-43
2023/08/11 00:30:41;;;;;;;135.40;10.13;;;;;;;23.04;57.29;99923.50;7287404;19;130033;-42
2023/08/11 00:33:06;;;;;;;108.67;8.37;;;;;;;23.04;56.92;99923.50;7289492;19;130611;-42
2023/08/11 00:35:31;;;;;;;140.02;10.23;;;;;;;23.02;57.51;99924.63;7289029;19;131158;-42
2023/08/11 00:37:57;;;;;;;116.93;8.67;;;;;;;22.92;57.48;99908.06;7288314;19;129861;-37
2023/08/11 00:40:23;;;;;;;145.60;10.43;;;;;;;23.02;56.64;99929.88;7279186;19;130846;-40
2023/08/11 00:42:52;;;;;;;142.03;10.30;;;;;;;23.03;56.65;99926.25;7277148;19;130451;-38
2023/08/11 00:45:18;;;;;;;181.93;13.02;;;;;;;22.92;57.33;99915.94;7277133;19;131069;-41
2023/08/11 00:47:45;;;;;;;142.43;10.32;;;;;;;22.99;56.89;99914.41;7278546;19;130838;-41
2023/08/11 00:50:12;;;;;;;159.50;11.65;;;;;;;22.97;57.07;99916.34;7279101;19;132261;-42
2023/08/11 00:52:38;;;;;;;149.15;10.88;;;;;;;23.03;57.07;99926.25;7279170;19;130881;-41
2023/08/11 00:55:04;;;;;;;;;;;;;;;23.09;57.65;99931.78;7278325;19;131499;-40
2023/08/11 00:57:29;;;;;;;159.68;11.45;;;;;;;22.95;56.91;99910.41;7278625;19;130114;-40
2023/08/11 00:59:56;;;;;;;97.07;8.00;;;;;;;23.04;57.21;99933.16;7282944;19;130959;-42
2023/08/11 01:02:21;;;;;;;161.67;11.67;;;;;;;22.96;56.33;99920.75;7281467;19;130722;-42
2023/08/11 01:04:48;;;;;;;150.02;10.80;;;;;;;22.90;55.87;99923.94;7277239;19;131025;-42
2023/08/11 01:07:36;;;;;;;170.90;12.80;;;;;;;22.84;57.61;99926.31;7276480;19;130385;-40
2023/08/11 01:10:14;;;;;;;145.10;10.43;;;;;;;22.82;57.37;99929.06;7277640;19;130305;-40
2023/08/11 01:13:14;;;;;;;129.13;9.60;;;;;;;22.92;57.91;99929.06;7286502;19;129682;-37
2023/08/11 01:15:59;;;;;;;166.80;12.07;;;;;;;22.93;58.05;99928.91;7274718;19;130215;-41
2023/08/11 01:18:24;;;;;;;168.63;12.05;;;;;;;22.97;57.24;99932.06;7273190;19;131175;-42
2023/08/11 01:20:58;;;;;;;155.90;11.50;;;;;;;22.90;57.89;99910.00;7277220;19;131540;-40
2023/08/11 01:23:24;;;;;;;168.60;11.75;;;;;;;23.00;57.14;99926.53;7273287;19;130768;-37
2023/08/11 01:25:51;;;;;;;182.10;12.80;;;;;;;23.00;57.02;99926.53;7275601;19;131197;-38
2023/08/11 01:28:17;;;;;;;158.80;11.30;;;;;;;23.01;57.36;99922.94;7277307;19;130650;-43
2023/08/11 01:30:43;;;;;;;155.07;10.83;;;;;;;23.01;57.10;99929.03;7274353;19;131218;-40
2023/08/11 01:33:08;;;;;;;140.15;10.30;;;;;;;23.02;57.19;99935.13;7277085;19;130160;-39
2023/08/11 01:35:33;;;;;;;199.77;13.93;;;;;;;22.92;57.00;99914.13;7284860;19;131096;-36
2023/08/11 01:37:59;;;;;;;131.23;9.70;;;;;;;23.00;56.86;99923.94;7286139;19;129799;-39
2023/08/11 01:40:26;;;;;;;138.10;10.23;;;;;;;23.03;57.29;99926.25;7286882;19;131307;-37
2023/08/11 01:42:52;;;;;;;132.93;9.50;;;;;;;23.03;56.84;99926.25;7285465;19;131001;-40
2023/08/11 01:45:18;;;;;;;134.45;9.70;;;;;;;23.02;57.38;99929.88;7287653;19;131942;-37
2023/08/11 01:47:46;;;;;;;193.60;13.97;;;;;;;23.00;57.61;99921.31;7281919;19;131292;-41
2023/08/11 01:50:13;;;;;;;159.85;11.75;;;;;;;23.03;56.93;99928.88;7277607;19;130240;-42
2023/08/11 01:52:41;;;;;;;165.70;11.75;;;;;;;23.04;57.39;99930.53;7276928;19;131372;-40
2023/08/11 01:55:09;;;;;;;155.38;11.27;;;;;;;23.02;57.00;99924.63;7274995;19;130735;-41
2023/08/11 01:57:36;;;;;;;132.32;9.55;;;;;;;23.03;57.17;99934.13;7284136;19;130626;-39
2023/08/11 02:00:05;;;;;;;106.50;7.95;;;;;;;23.05;56.53;99940.06;7288064;19;130384;-39
2023/08/11 02:02:30;;;;;;;174.63;12.60;;;;;;;23.05;57.26;99938.28;7274128;19;130232;-42
2023/08/11 02:04:58;;;;;;;152.93;11.38;;;;;;;23.04;57.64;99939.22;7275791;19;130735;-40
2023/08/11 02:07:23;;;;;;;165.82;11.85;;;;;;;23.04;56.73;99938.41;7273879;19;131421;-41
2023/08/11 02:09:49;;;;;;;158.23;11.52;;;;;;;22.97;57.04;99926.84;7276766;19;131442;-41
2023/08/11 02:12:14;;;;;;;158.90;11.40;;;;;;;23.04;57.13;99938.41;7276320;19;131775;-41
2023/08/11 02:14:40;;;;;;;196.93;14.18;;;;;;;23.05;57.55;99934.81;7274166;19;131213;-40
2023/08/11 02:17:05;;;;;;;163.37;11.87;;;;;;;23.04;57.35;99936.59;7277314;19;130200;-38
2023/08/11 02:19:30;;;;;;;146.73;10.57;;;;;;;23.05;57.51;99940.06;7284667;19;131956;-39
2023/08/11 02:21:56;;;;;;;117.83;8.70;;;;;;;23.06;56.91;99931.22;7285804;19;129694;-38
2023/08/11 02:24:21;;;;;;;186.17;13.43;;;;;;;23.05;57.25;99935.66;7281070;19;131134;-42
2023/08/11 02:26:47;;;;;;;134.57;9.77;;;;;;;23.06;56.61;99936.47;7276788;19;129853;-40
2023/08/11 02:29:12;;;;;;;127.10;9.52;;;;;;;23.03;57.57;99926.25;7285651;19;130533;-40
2023/08/11 02:31:37;;;;;;;164.97;11.90;;;;;;;23.05;56.82;99932.19;7282845;19;131049;-39
2023/08/11 02:34:03;;;;;;;155.37;11.37;;;;;;;23.03;57.08;99927.09;7283855;19;130558;-40
2023/08/11 02:36:28;;;;;;;192.83;14.20;;;;;;;23.07;56.76;99935.53;7278946;19;129652;-38
2023/08/11 02:38:54;;;;;;;154.13;11.75;;;;;;;23.08;56.90;99934.53;7274918;19;130478;-42
2023/08/11 02:41:20;;;;;;;176.87;12.33;;;;;;;23.06;57.40;99944.34;7274723;19;131171;-43
2023/08/11 02:43:45;;;;;;;144.63;10.48;;;;;;;23.06;57.19;99944.34;7267967;19;132623;-41
2023/08/11 02:46:11;;;;;;;169.97;12.20;;;;;;;23.05;56.98;99945.31;7273177;19;130640;-42
2023/08/11 02:48:38;;;;;;;122.10;9.37;;;;;;;23.06;57.05;99949.56;7275008;19;130555;-39
2023/08/11 02:51:04;;;;;;;189.35;13.30;;;;;;;23.03;57.24;99942.00;7281701;19;129666;-37
2023/08/11 02:53:30;;;;;;;173.60;12.67;;;;;;;23.06;56.65;99952.19;7275514;19;131319;-42
2023/08/11 02:55:55;;;;;;;153.40;11.33;;;;;;;23.06;57.46;99957.44;7273730;19;132429;-37
2023/08/11 02:58:21;;;;;;;154.83;11.30;;;;;;;23.06;57.51;99954.81;7273152;19;130365;-42
2023/08/11 03:00:48;;;;;;;145.23;10.33;;;;;;;23.05;57.48;99961.88;7281515;19;130011;-41
2023/08/11 03:03:14;;;;;;;150.43;10.85;;;;;;;23.06;57.49;99960.06;7273272;19;134525;-43
2023/08/11 03:05:41;;;;;;;175.83;12.50;;;;;;;23.07;56.87;99961.75;7274025;19;131015;-37
2023/08/11 03:08:07;;;;;;;181.32;13.15;;;;;;;23.06;57.55;99957.44;7274355;19;131427;-39
2023/08/11 03:10:33;;;;;;;178.33;12.60;;;;;;;23.06;56.82;99960.91;7271375;19;133170;-39
2023/08/11 03:12:58;;;;;;;202.68;14.45;;;;;;;23.06;57.17;99957.44;7273355;19;130381;-39
2023/08/11 03:15:23;;;;;;;170.23;12.27;;;;;;;22.97;57.34;99937.31;7268499;19;131524;-37
2023/08/11 03:17:49;;;;;;;140.53;10.37;;;;;;;23.04;57.37;99954.13;7272762;19;130097;-38
2023/08/11 03:20:18;;;;;;;146.75;10.35;;;;;;;23.07;57.35;99959.13;7276576;19;130019;-41
2023/08/11 03:22:44;;;;;;;154.95;11.27;;;;;;;23.07;57.06;99953.88;7280632;19;131202;-41
2023/08/11 03:25:11;;;;;;;137.88;10.02;;;;;;;23.05;57.15;99961.06;7278318;19;130676;-40
2023/08/11 03:27:39;;;;;;;168.38;12.25;;;;;;;23.06;57.18;99963.53;7274292;19;130941;-39
2023/08/11 03:30:06;;;;;;;184.02;12.60;;;;;;;23.06;57.12;99962.69;7270430;19;131021;-38
2023/08/11 03:32:32;;;;;;;98.10;7.80;;;;;;;23.06;56.68;99960.06;7285424;19;131411;-41
2023/08/11 03:34:57;;;;;;;130.60;9.70;;;;;;;23.06;56.94;99962.69;7292012;19;129153;-40
2023/08/11 03:37:22;;;;;;;144.63;10.10;;;;;;;23.05;57.49;99966.28;7278409;19;129801;-37
2023/08/11 03:39:47;;;;;;;173.93;12.20;;;;;;;23.03;57.42;99962.97;7273915;19;131465;-37
2023/08/11 03:42:13;;;;;;;127.10;9.45;;;;;;;22.93;57.23;99946.44;7276630;19;130277;-40
2023/08/11 03:44:38;;;;;;;170.60;12.30;;;;;;;23.07;57.57;99969.59;7281728;19;131164;-39
2023/08/11 03:47:05;;;;;;;119.73;9.23;;;;;;;22.95;57.10;99947.13;7278660;19;131363;-41
2023/08/11 03:49:31;;;;;;;136.33;10.03;;;;;;;22.95;57.32;99944.50;7283566;19;129704;-44
2023/08/11 03:51:57;;;;;;;111.35;8.20;;;;;;;23.07;56.76;99964.38;7280539;19;131081;-42
2023/08/11 03:54:22;;;;;;;157.57;11.50;;;;;;;23.08;57.37;99971.25;7281407;19;129739;-42
2023/08/11 03:56:48;;;;;;;156.95;10.85;;;;;;;23.08;57.46;99972.09;7281356;19;130999;-42
2023/08/11 03:59:13;;;;;;;195.33;13.67;;;;;;;23.07;56.94;99965.16;7275342;19;130542;-37
2023/08/11 04:01:38;;;;;;;112.83;8.43;;;;;;;23.07;57.05;99969.59;7279100;19;131414;-38
2023/08/11 04:04:04;;;;;;;153.52;11.05;;;;;;;23.06;57.63;99976.63;7280498;19;130419;-42
2023/08/11 04:06:32;;;;;;;176.55;12.48;;;;;;;23.06;57.76;99973.19;7271275;19;129968;-42
2023/08/11 04:08:59;;;;;;;144.63;10.77;;;;;;;23.05;57.30;99977.63;7278797;19;131513;-40
2023/08/11 04:11:25;;;;;;;;;;;;;;;23.05;58.16;99972.38;7278538;19;129716;-43
2023/08/11 04:13:50;;;;;;;153.07;11.55;;;;;;;23.06;56.91;99978.44;7273267;19;130226;-40
2023/08/11 04:16:15;;;;;;;171.02;11.88;;;;;;;22.97;57.11;99974.03;7269675;19;131945;-36
2023/08/11 04:18:41;;;;;;;136.83;9.97;;;;;;;23.06;57.66;99973.19;7282340;19;130531;-42
2023/08/11 04:21:06;;;;;;;111.53;8.43;;;;;;;23.06;56.80;99986.28;7282272;19;129566;-39
2023/08/11 04:23:31;;;;;;;75.67;5.90;;;;;;;23.08;57.08;99984.38;7295292;19;129669;-40
2023/08/11 04:25:57;;;;;;;82.03;6.13;;;;;;;23.07;57.03;99990.59;7302557;19;129407;-42
2023/08/11 04:28:22;;;;;;;88.00;6.73;;;;;;;23.08;57.08;99987.00;7292005;19;129432;-42
2023/08/11 04:30:48;;;;;;;96.32;7.55;;;;;;;23.08;57.06;99982.59;7292206;19;129705;-43
2023/08/11 04:33:13;;;;;;;94.23;6.50;;;;;;;23.07;57.45;99977.47;7292966;19;131275;-42
2023/08/11 04:35:38;;;;;;;70.95;5.50;;;;;;;23.09;57.43;99980.75;7302850;19;129120;-42
2023/08/11 04:38:04;;;;;;;44.35;4.20;;;;;;;23.08;57.34;99981.75;7302853;19;129637;-43
2023/08/11 04:40:29;;;;;;;56.60;4.72;;;;;;;23.08;56.96;99992.22;7302488;19;129490;-42
2023/08/11 04:42:55;;;;;;;57.43;4.67;;;;;;;23.08;57.09;99989.63;7295385;19;130694;-35
2023/08/11 04:45:21;;;;;;;100.47;7.60;;;;;;;23.11;57.42;99991.94;7301983;19;130347;-38
2023/08/11 04:47:47;;;;;;;63.30;5.33;;;;;;;23.10;57.05;99993.75;7297992;19;129502;-41
2023/08/11 04:50:12;;;;;;;140.87;10.63;;;;;;;23.05;56.36;99998.59;7298193;19;129382;-40
2023/08/11 04:52:38;;;;;;;107.85;7.93;;;;;;;22.97;56.06;99985.31;7296842;19;129861;-41
2023/08/11 04:55:05;;;;;;;155.37;10.97;;;;;;;23.02;56.77;99993.59;7298030;19;129399;-41
2023/08/11 04:57:30;;;;;;;72.32;6.03;;;;;;;23.02;56.10;99984.94;7300384;19;129417;-44
2023/08/11 04:59:56;;;;;;;79.17;6.67;;;;;;;23.02;56.35;99998.03;7301292;19;130268;-39
2023/08/11 05:02:21;;;;;;;64.53;5.80;;;;;;;22.99;56.67;99993.88;7295822;19;130319;-36
2023/08/11 05:04:46;;;;;;;32.03;3.63;;;;;;;22.95;56.29;99991.69;7300783;19;129460;-43
2023/08/11 05:07:12;;;;;;;45.87;4.60;;;;;;;22.99;56.38;100003.56;7296988;19;129438;-38
2023/08/11 05:09:38;;;;;;;66.30;6.10;;;;;;;22.97;56.44;100005.50;7301374;19;129118;-39
2023/08/11 05:12:04;;;;;;;72.50;6.40;;;;;;;22.96;56.09;100009.06;7302360;19;130035;-41
2023/08/11 05:14:30;;;;;;;122.70;10.48;;;;;;;22.94;56.09;100005.78;7307600;19;129876;-38
2023/08/11 05:16:55;;;;;;;48.10;5.00;;;;;;;22.97;56.06;100016.00;7300738;19;129994;-43
2023/08/11 05:19:21;;;;;;;56.70;5.60;;;;;;;22.96;56.33;100014.31;7308917;19;131199;-43
2023/08/11 05:21:46;;;;;;;72.15;6.10;;;;;;;22.86;56.13;99992.50;7309060;19;129372;-40
2023/08/11 05:24:12;;;;;;;78.65;6.97;;;;;;;22.97;55.69;100023.84;7306073;19;129469;-43
2023/08/11 05:26:38;;;;;;;90.50;7.77;;;;;;;22.95;56.23;100015.28;7301320;19;130195;-43
2023/08/11 05:29:03;;;;;;;43.47;4.57;;;;;;;22.94;56.42;100017.06;7308621;19;129216;-39
2023/08/11 05:31:29;;;;;;;87.57;6.87;;;;;;;22.96;55.85;100024.81;7299073;19;129379;-37
2023/08/11 05:33:55;;;;;;;54.90;5.17;;;;;;;22.95;55.86;100023.16;7305885;19;130920;-40
2023/08/11 05:36:21;;;;;;;70.60;6.20;;;;;;;22.94;55.92;100021.50;7305481;19;130115;-40
2023/08/11 05:38:46;;;;;;;101.13;8.27;;;;;;;22.93;55.80;100030.31;7298237;19;129700;-42
2023/08/11 05:41:12;;;;;;;86.57;7.30;;;;;;;22.97;56.35;100027.28;7300833;19;129287;-42
2023/08/11 05:43:37;;;;;;;61.27;5.63;;;;;;;23.07;56.64;100038.59;7303704;19;130637;-38
2023/08/11 05:46:06;;;;;;;52.77;5.50;;;;;;;23.13;56.90;100034.59;7301884;19;130183;-43
2023/08/11 05:48:38;;;;;;;62.28;5.95;;;;;;;23.15;55.99;100025.63;7311360;19;130639;-37
2023/08/11 05:51:04;;;;;;;36.08;4.18;;;;;;;23.18;56.60;100035.03;7314027;19;129743;-40
2023/08/11 05:53:29;;;;;;;66.07;5.90;;;;;;;23.21;56.14;100034.75;7307953;19;130434;-41
2023/08/11 05:55:55;;;;;;;51.30;4.97;;;;;;;23.13;55.96;100016.25;7312747;19;129457;-44
2023/08/11 05:58:20;;;;;;;45.00;5.13;;;;;;;23.25;55.83;100036.13;7307844;19;131332;-42
2023/08/11 06:00:47;;;;;;;65.37;6.10;;;;;;;23.24;55.75;100035.28;7311718;19;129512;-40
2023/08/11 06:03:12;;;;;;;67.22;6.82;;;;;;;23.24;56.24;100044.94;7308040;19;128992;-43
2023/08/11 06:05:38;;;;;;;34.27;4.53;;;;;;;23.25;56.37;100041.38;7308751;19;129257;-40
2023/08/11 06:08:03;;;;;;;112.33;8.90;;;;;;;23.25;55.66;100044.81;7304395;19;130237;-43
2023/08/11 06:10:30;;;;;;;118.88;10.02;;;;;;;23.26;56.02;100037.78;7295828;19;130974;-39
2023/08/11 06:12:56;;;;;;;65.30;6.18;;;;;;;23.24;56.18;100035.28;7301040;19;131019;-42
2023/08/11 06:15:22;;;;;;;75.15;6.60;;;;;;;23.21;56.16;100040.00;7299405;19;130309;-38
2023/08/11 06:17:49;;;;;;;48.27;5.33;;;;;;;23.23;56.10;100044.16;7290845;19;130129;-39
2023/08/11 06:20:18;;;;;;;46.17;4.65;;;;;;;23.22;56.53;100047.72;7307032;19;129453;-35
2023/08/11 06:22:45;;;;;;;82.72;7.18;;;;;;;23.21;55.96;100048.69;7295802;19;130746;-39
2023/08/11 06:25:11;;;;;;;32.30;3.70;;;;;;;23.23;56.26;100048.56;7309493;19;132178;-43
2023/08/11 06:27:37;;;;;;;40.00;4.47;;;;;;;23.24;56.13;100051.03;7309334;19;130077;-42
2023/08/11 06:30:04;;;;;;;63.17;5.43;;;;;;;23.24;56.11;100050.19;7311998;19;129143;-37
2023/08/11 06:32:30;;;;;;;64.80;6.38;;;;;;;23.22;56.36;100052.97;7303825;19;130417;-43
2023/08/11 06:34:55;;;;;;;73.80;6.77;;;;;;;23.21;56.10;100055.72;7297502;19;129976;-41
2023/08/11 06:37:21;;;;;;;47.83;4.70;;;;;;;23.16;56.49;100042.19;7303468;19;129721;-43
2023/08/11 06:39:46;;;;;;;49.80;5.53;;;;;;;23.18;56.29;100046.34;7307884;19;129842;-43
2023/08/11 06:42:12;;;;;;;54.57;5.77;;;;;;;23.20;56.47;100048.84;7300618;19;130773;-43
2023/08/11 06:44:37;;;;;;;86.32;7.75;;;;;;;23.20;56.19;100060.13;7296980;19;131877;-39
2023/08/11 06:47:02;;;;;;;66.73;6.47;;;;;;;23.20;56.38;100060.13;7300775;19;129430;-42
2023/08/11 06:49:28;;;;;;;77.50;6.97;;;;;;;23.09;56.49;100047.16;7303158;19;129234;-42
2023/08/11 06:51:53;;;;;;;67.78;6.82;;;;;;;23.21;56.72;100071.47;7295558;19;131487;-42
2023/08/11 06:54:18;;;;;;;59.23;5.83;;;;;;;23.15;56.85;100053.66;7303756;19;130015;-42
2023/08/11 06:56:44;;;;;;;70.00;6.60;;;;;;;23.12;56.26;100048.69;7299248;19;129884;-43
2023/08/11 06:59:09;;;;;;;94.28;7.75;;;;;;;23.22;55.69;100075.75;7301181;19;129973;-45
2023/08/11 07:01:34;;;;;;;60.73;6.00;;;;;;;23.10;56.07;100048.00;7301023;19;129432;-42
2023/08/11 07:03:59;;;;;;;63.73;6.77;;;;;;;23.18;56.20;100067.34;7300072;19;129947;-43
2023/08/11 07:06:25;;;;;;;80.67;7.07;;;;;;;23.17;56.39;100073.53;7299456;19;131856;-42
2023/08/11 07:08:51;;;;;;;93.97;7.88;;;;;;;23.20;56.60;100069.81;7298669;19;129714;-43
2023/08/11 07:11:16;;;;;;;39.00;4.13;;;;;;;23.18;56.30;100071.75;7309669;19;130127;-42
2023/08/11 07:13:41;;;;;;;53.88;5.25;;;;;;;23.19;55.86;100081.25;7306251;19;130166;-41
2023/08/11 07:16:07;;;;;;;52.38;4.85;;;;;;;23.20;55.57;100080.31;7306402;19;130547;-41
2023/08/11 07:18:32;;;;;;;55.55;5.55;;;;;;;23.20;56.20;100082.94;7308071;19;130063;-39
2023/08/11 07:20:57;;;;;;;43.00;5.07;;;;;;;23.08;55.98;100065.66;7310167;19;129128;-38
2023/08/11 07:23:23;;;;;;;51.00;4.70;;;;;;;23.17;56.37;100088.47;7309319;19;129376;-40
2023/08/11 07:25:48;;;;;;;48.05;4.43;;;;;;;23.15;55.89;100088.56;7307752;19;129993;-40
2023/08/11 07:28:13;;;;;;;42.97;4.50;;;;;;;23.19;56.38;100099.63;7306675;19;129811;-37
2023/08/11 07:30:39;;;;;;;45.27;4.53;;;;;;;23.17;55.68;100093.72;7310146;19;129220;-43
2023/08/11 07:33:04;;;;;;;44.07;4.13;;;;;;;23.17;56.55;100091.91;7310561;19;129013;-42
2023/08/11 07:35:30;;;;;;;49.37;4.70;;;;;;;23.17;56.45;100096.34;7310290;19;129286;-42
2023/08/11 07:37:56;;;;;;;28.60;3.57;;;;;;;23.16;56.46;100099.91;7306042;19;130747;-39
2023/08/11 07:40:22;;;;;;;31.83;3.70;;;;;;;23.07;55.67;100074.53;7310460;19;129482;-38
2023/08/11 07:42:47;;;;;;;53.80;4.90;;;;;;;23.17;55.99;100096.34;7310317;19;129740;-41
2023/08/11 07:45:13;;;;;;;35.85;3.78;;;;;;;23.17;56.43;100101.59;7308529;19;129158;-42
2023/08/11 07:47:39;;;;;;;34.13;3.70;;;;;;;23.17;56.04;100101.59;7306723;19;128956;-43
2023/08/11 07:50:05;;;;;;;36.35;3.70;;;;;;;23.06;56.51;100075.47;7309727;19;129338;-38
2023/08/11 07:52:31;;;;;;;;;;;;;;;23.25;56.22;100093.84;7307715;19;129501;-42
2023/08/11 07:54:56;;;;;;;59.67;4.95;;;;;;;23.19;56.22;100089.13;7306708;19;129259;-38
2023/08/11 07:57:22;;;;;;;34.63;3.75;;;;;;;23.17;56.31;100097.13;7308055;19;129849;-38
2023/08/11 07:59:48;;;;;;;41.63;4.22;;;;;;;23.16;56.09;100099.91;7310675;19;129550;-43
2023/08/11 08:02:13;;;;;;;44.60;4.10;;;;;;;23.17;56.48;100089.28;7308529;19;129546;-44
2023/08/11 08:04:38;;;;;;;54.08;4.90;;;;;;;23.16;56.04;100089.41;7303037;19;129311;-37
2023/08/11 08:07:04;;;;;;;33.35;3.67;;;;;;;23.16;55.90;100089.41;7309668;19;129310;-40
2023/08/11 08:09:33;;;;;;;80.40;6.60;;;;;;;23.16;55.49;100089.41;7308501;19;128964;-39
2023/08/11 08:12:00;;;;;;;55.67;4.90;;;;;;;23.14;55.62;100086.09;7307879;19;129680;-40
2023/08/11 08:14:25;;;;;;;60.30;5.53;;;;;;;23.04;55.82;100067.75;7308452;19;130205;-42
2023/08/11 08:16:50;;;;;;;44.60;4.20;;;;;;;23.15;55.94;100093.00;7310223;19;129682;-38
2023/08/11 08:19:17;;;;;;;44.07;4.30;;;;;;;23.17;55.99;100089.28;7309350;19;129762;-42
2023/08/11 08:21:42;;;;;;;37.28;3.75;;;;;;;23.16;55.57;100089.41;7309461;19;129813;-39
2023/08/11 08:24:08;;;;;;;19.03;2.60;;;;;;;23.15;55.85;100087.75;7305523;19;130688;-40
2023/08/11 08:26:35;;;;;;;67.53;5.97;;;;;;;23.15;55.75;100088.56;7303580;19;130104;-40
2023/08/11 08:29:01;;;;;;;71.72;5.90;;;;;;;23.14;55.92;100091.34;7308012;19;129334;-41
2023/08/11 08:31:27;;;;;;;76.67;5.97;;;;;;;23.16;55.49;100089.41;7307787;19;129262;-42
2023/08/11 08:33:53;;;;;;;39.90;3.93;;;;;;;23.13;56.27;100094.94;7304417;19;130354;-39
2023/08/11 08:36:18;;;;;;;35.43;3.27;;;;;;;23.14;55.42;100107.06;7305630;19;129386;-39
2023/08/11 08:38:43;;;;;;;46.17;4.17;;;;;;;23.15;55.74;100103.50;7303371;19;130323;-42
2023/08/11 08:41:09;;;;;;;23.47;2.63;;;;;;;23.15;55.53;100108.75;7307480;19;129105;-39
2023/08/11 08:43:35;;;;;;;29.60;2.88;;;;;;;23.16;55.33;100113.84;7306624;19;129574;-43
2023/08/11 08:46:04;;;;;;;40.17;3.63;;;;;;;23.17;55.92;100112.88;7307123;19;130110;-38
2023/08/11 08:48:39;;;;;;;66.18;5.10;;;;;;;23.16;55.56;100110.41;7309893;19;129234;-36
2023/08/11 08:51:06;;;;;;;40.67;3.53;;;;;;;23.15;55.54;100103.50;7316035;19;129700;-39
2023/08/11 08:53:32;;;;;;;92.28;6.85;;;;;;;23.15;55.15;100108.75;7313818;19;129153;-41
2023/08/11 08:55:57;;;;;;;32.93;3.73;;;;;;;23.16;55.56;100105.16;7310531;19;131162;-38
2023/08/11 08:58:23;;;;;;;42.00;3.87;;;;;;;23.15;55.27;100108.75;7313447;19;129924;-39
2023/08/11 09:00:50;;;;;;;64.85;4.80;;;;;;;23.16;55.93;100110.41;7311148;19;130363;-42
2023/08/11 09:03:16;;;;;;;39.28;3.30;;;;;;;23.16;55.15;100092.03;7314124;19;130758;-38
2023/08/11 09:05:41;;;;;;;35.33;3.33;;;;;;;23.05;55.24;100086.94;7311498;19;130000;-42
2023/08/11 09:08:06;;;;;;;47.80;3.88;;;;;;;23.15;55.14;100093.00;7312432;19;129429;-39
2023/08/11 09:10:34;;;;;;;55.13;4.63;;;;;;;23.10;55.81;100089.97;7309054;19;132090;-42
2023/08/11 09:12:59;;;;;;;32.08;3.20;;;;;;;23.14;55.78;100102.66;7314591;19;129597;-40
2023/08/11 09:15:25;;;;;;;47.97;3.97;;;;;;;23.14;55.40;100092.19;7311263;19;129201;-41
2023/08/11 09:17:50;;;;;;;35.73;3.20;;;;;;;23.16;55.31;100089.41;7310556;19;129848;-41
2023/08/11 09:20:19;;;;;;;80.32;6.32;;;;;;;23.13;55.55;100094.94;7311529;19;130177;-42
2023/08/11 09:22:44;;;;;;;30.65;2.85;;;;;;;23.03;55.39;100078.38;7310089;19;131109;-44
2023/08/11 09:25:12;;;;;;;61.10;5.03;;;;;;;23.13;55.29;100084.44;7307058;19;129881;-42
2023/08/11 09:27:37;;;;;;;65.85;5.38;;;;;;;23.14;54.60;100091.34;7308717;19;130550;-41
2023/08/11 09:30:03;;;;;;;59.33;4.43;;;;;;;23.12;54.71;100086.22;7313439;19;129425;-40
2023/08/11 09:32:35;;;;;;;59.28;4.63;;;;;;;23.16;55.94;100084.16;7309882;19;129620;-42
2023/08/11 09:35:09;;;;;;;50.17;4.05;;;;;;;23.13;55.19;100084.44;7311187;19;129110;-38
2023/08/11 09:37:35;;;;;;;29.15;3.10;;;;;;;23.12;54.99;100077.56;7303891;19;131198;-44
2023/08/11 09:40:04;;;;;;;56.07;4.23;;;;;;;23.13;54.56;100079.19;7310516;19;131593;-40
2023/08/11 09:42:30;;;;;;;34.90;3.17;;;;;;;23.13;54.74;100081.81;7314042;19;129396;-41
2023/08/11 09:44:55;;;;;;;54.10;4.33;;;;;;;23.13;54.25;100073.94;7305592;19;130313;-43
2023/08/11 09:47:21;;;;;;;33.47;3.17;;;;;;;23.11;54.47;100068.00;7309847;19;129716;-40
2023/08/11 09:49:46;;;;;;;52.47;4.03;;;;;;;23.16;54.59;100076.28;7314481;19;130378;-44
2023/08/11 09:52:12;;;;;;;27.90;2.53;;;;;;;23.15;54.68;100072.84;7311440;19;131467;-39
2023/08/11 09:54:41;;;;;;;67.50;5.77;;;;;;;23.15;54.86;100082.53;7309322;19;130520;-39
2023/08/11 09:57:07;;;;;;;35.25;3.03;;;;;;;23.14;54.51;100078.22;7312653;19;131198;-38
2023/08/11 09:59:33;;;;;;;63.97;4.87;;;;;;;23.04;54.95;100053.78;7313885;19;129575;-38
2023/08/11 10:02:02;;;;;;;35.38;3.13;;;;;;;23.13;55.28;100068.72;7313937;19;129834;-42
2023/08/11 10:04:41;;;;;;;83.47;6.80;;;;;;;23.13;55.01;100069.53;7310256;19;129618;-42
2023/08/11 10:07:14;;;;;;;59.22;4.93;;;;;;;23.14;54.67;100070.34;7311657;19;128982;-42
2023/08/11 10:09:41;;;;;;;38.60;3.55;;;;;;;23.13;55.04;100073.94;7311924;19;130337;-44
2023/08/11 10:12:08;;;;;;;57.67;4.60;;;;;;;23.13;54.03;100073.94;7311189;19;129867;-41
2023/08/11 10:14:35;;;;;;;;;;;;;;;23.20;54.87;100072.44;7309258;19;129483;-42
2023/08/11 10:17:01;;;;;;;50.47;4.35;;;;;;;23.13;54.43;100068.72;7312707;19;130720;-43
2023/08/11 10:19:27;;;;;;;31.20;3.00;;;;;;;23.10;54.55;100069.00;7311079;19;129599;-41
2023/08/11 10:21:53;;;;;;;49.80;4.07;;;;;;;23.11;54.57;100070.63;7311717;19;129476;-43
2023/08/11 10:24:20;;;;;;;85.00;6.75;;;;;;;23.12;54.76;100072.31;7305126;19;129627;-41
2023/08/11 10:26:46;;;;;;;41.67;3.90;;;;;;;23.00;54.42;100052.41;7310976;19;129650;-39
2023/08/11 10:29:12;;;;;;;25.17;2.83;;;;;;;23.11;54.57;100074.09;7312522;19;129805;-39
2023/08/11 10:31:53;;;;;;;63.63;4.93;;;;;;;23.12;55.11;100062.63;7312130;19;130653;-44
2023/08/11 10:34:21;;;;;;;74.75;5.93;;;;;;;23.10;54.92;100059.34;7311101;19;129232;-44
2023/08/11 10:36:47;;;;;;;55.75;4.65;;;;;;;23.08;54.68;100060.44;7310120;19;130233;-41
2023/08/11 10:39:17;;;;;;;31.37;2.80;;;;;;;23.12;55.52;100061.81;7311070;19;129973;-40
2023/08/11 10:41:46;;;;;;;38.15;3.13;;;;;;;23.11;54.92;100071.47;7312192;19;129442;-38
2023/08/11 10:44:12;;;;;;;93.38;6.68;;;;;;;22.98;54.93;100043.84;7309347;19;129254;-41
2023/08/11 10:46:38;;;;;;;48.27;3.70;;;;;;;23.14;55.00;100065.09;7306165;19;129503;-40
2023/08/11 10:49:03;;;;;;;29.33;2.80;;;;;;;23.13;55.11;100072.16;7312302;19;131206;-41
2023/08/11 10:51:31;;;;;;;51.33;4.40;;;;;;;23.13;54.91;100066.09;7311390;19;130328;-42
2023/08/11 10:54:00;;;;;;;62.78;4.93;;;;;;;23.02;55.18;100045.25;7311586;19;129065;-41
2023/08/11 10:56:29;;;;;;;37.83;3.25;;;;;;;23.13;55.07;100055.59;7309202;19;129562;-40
2023/08/11 10:59:12;;;;;;;39.40;3.47;;;;;;;23.09;55.58;100049.78;7312126;19;129870;-40
2023/08/11 11:01:40;;;;;;;33.67;3.13;;;;;;;23.11;55.11;100062.75;7312519;19;129748;-41
2023/08/11 11:04:07;;;;;;;44.08;3.85;;;;;;;23.12;54.54;100059.19;7309222;19;131026;-38
2023/08/11 11:06:33;;;;;;;52.70;4.00;;;;;;;23.15;54.91;100051.03;7307703;19;131231;-41